sensor_id;sensor_type;location;lat;lon;timestamp;pressure;altitude;pressure_sealevel;temperature;humidity
25526;BME280;13424;48.424;11.258;2023-04-25T00:01:21;94971.56;;;9.68;69.36
25526;BME280;13424;48.424;11.258;2023-04-25T00:03:49;94983.34;;;9.72;69.47
25526;BME280;13424;48.424;11.258;2023-04-25T00:06:16;94978.56;;;9.74;69.64
25526;BME280;13424;48.424;11.258;2023-04-25T00:08:43;94974.59;;;9.55;70.16
25526;BME280;13424;48.424;11.258;2023-04-25T00:11:09;94975.53;;;9.44;70.59
25526;BME280;13424;48.424;11.258;2023-04-25T00:13:35;94973.81;;;9.33;70.77
25526;BME280;13424;48.424;11.258;2023-04-25T00:16:01;94976.41;;;9.28;70.60
25526;BME280;13424;48.424;11.258;2023-04-25T00:18:28;94977.72;;;9.08;71.16
25526;BME280;13424;48.424;11.258;2023-04-25T00:20:58;94981.22;;;9.09;71.48
25526;BME280;13424;48.424;11.258;2023-04-25T00:23:24;94981.34;;;9.19;71.89
25526;BME280;13424;48.424;11.258;2023-04-25T00:29:25;94979.56;;;9.68;71.52
25526;BME280;13424;48.424;11.258;2023-04-25T00:31:51;94981.34;;;9.85;71.08
25526;BME280;13424;48.424;11.258;2023-04-25T00:34:17;94978.91;;;10.05;70.82
25526;BME280;13424;48.424;11.258;2023-04-25T00:36:43;94983.59;;;10.20;70.80
25526;BME280;13424;48.424;11.258;2023-04-25T00:39:09;94979.13;;;10.25;70.91
25526;BME280;13424;48.424;11.258;2023-04-25T00:41:35;94978.28;;;10.20;70.66
25526;BME280;13424;48.424;11.258;2023-04-25T00:44:01;94979.56;;;10.17;71.07
25526;BME280;13424;48.424;11.258;2023-04-25T00:46:27;94978.19;;;10.37;70.84
25526;BME280;13424;48.424;11.258;2023-04-25T00:48:53;94977.59;;;10.29;71.06
25526;BME280;13424;48.424;11.258;2023-04-25T00:51:20;94975.34;;;10.21;71.39
25526;BME280;13424;48.424;11.258;2023-04-25T00:53:48;94971.25;;;10.36;71.07
25526;BME280;13424;48.424;11.258;2023-04-25T00:56:15;94976.25;;;10.59;70.89
25526;BME280;13424;48.424;11.258;2023-04-25T00:58:41;94967.78;;;10.67;70.27
25526;BME280;13424;48.424;11.258;2023-04-25T01:01:08;94965.59;;;10.64;70.37
25526;BME280;13424;48.424;11.258;2023-04-25T01:03:37;94959.69;;;10.57;70.77
25526;BME280;13424;48.424;11.258;2023-04-25T01:06:10;94964.13;;;10.78;69.91
25526;BME280;13424;48.424;11.258;2023-04-25T01:08:38;94962.53;;;10.77;70.03
25526;BME280;13424;48.424;11.258;2023-04-25T01:11:05;94965.22;;;10.82;69.72
25526;BME280;13424;48.424;11.258;2023-04-25T01:13:31;94961.75;;;10.50;70.27
25526;BME280;13424;48.424;11.258;2023-04-25T01:15:59;94966.47;;;10.70;69.87
25526;BME280;13424;48.424;11.258;2023-04-25T01:18:26;94957.59;;;10.59;70.34
25526;BME280;13424;48.424;11.258;2023-04-25T01:20:52;94958.41;;;10.65;70.27
25526;BME280;13424;48.424;11.258;2023-04-25T01:23:23;94959.06;;;10.45;70.65
25526;BME280;13424;48.424;11.258;2023-04-25T01:25:49;94949.66;;;10.37;70.74
25526;BME280;13424;48.424;11.258;2023-04-25T01:28:16;94950.00;;;10.46;70.48
25526;BME280;13424;48.424;11.258;2023-04-25T01:30:43;94947.94;;;10.53;70.14
25526;BME280;13424;48.424;11.258;2023-04-25T01:33:09;94943.91;;;10.50;70.50
25526;BME280;13424;48.424;11.258;2023-04-25T01:35:35;94945.22;;;10.48;70.57
25526;BME280;13424;48.424;11.258;2023-04-25T01:38:01;94937.41;;;10.41;70.98
25526;BME280;13424;48.424;11.258;2023-04-25T01:40:27;94933.19;;;10.18;71.80
25526;BME280;13424;48.424;11.258;2023-04-25T01:42:53;94926.47;;;10.38;71.42
25526;BME280;13424;48.424;11.258;2023-04-25T01:45:20;94915.81;;;10.38;71.74
25526;BME280;13424;48.424;11.258;2023-04-25T01:47:46;94928.63;;;10.41;71.63
25526;BME280;13424;48.424;11.258;2023-04-25T01:50:18;94924.94;;;10.47;71.37
25526;BME280;13424;48.424;11.258;2023-04-25T01:52:44;94926.56;;;10.48;71.31
25526;BME280;13424;48.424;11.258;2023-04-25T01:55:11;94937.13;;;10.70;70.47
25526;BME280;13424;48.424;11.258;2023-04-25T01:57:43;94935.78;;;10.67;70.68
25526;BME280;13424;48.424;11.258;2023-04-25T02:00:12;94937.81;;;10.55;70.79
25526;BME280;13424;48.424;11.258;2023-04-25T02:02:38;94941.28;;;10.23;72.23
25526;BME280;13424;48.424;11.258;2023-04-25T02:05:07;94929.97;;;10.16;72.18
25526;BME280;13424;48.424;11.258;2023-04-25T02:07:36;94935.69;;;10.57;70.42
25526;BME280;13424;48.424;11.258;2023-04-25T02:10:03;94938.34;;;10.57;70.18
25526;BME280;13424;48.424;11.258;2023-04-25T02:12:34;94933.34;;;10.33;70.60
25526;BME280;13424;48.424;11.258;2023-04-25T02:15:19;94933.13;;;10.35;70.59
25526;BME280;13424;48.424;11.258;2023-04-25T02:17:51;94943.13;;;10.23;70.99
25526;BME280;13424;48.424;11.258;2023-04-25T02:20:24;94939.56;;;10.12;71.44
25526;BME280;13424;48.424;11.258;2023-04-25T02:22:50;94945.41;;;9.87;72.27
25526;BME280;13424;48.424;11.258;2023-04-25T02:25:17;94945.50;;;10.19;71.60
25526;BME280;13424;48.424;11.258;2023-04-25T02:27:46;94941.19;;;9.91;72.73
25526;BME280;13424;48.424;11.258;2023-04-25T02:30:13;94933.31;;;10.01;72.70
25526;BME280;13424;48.424;11.258;2023-04-25T02:32:40;94930.75;;;10.12;72.03
25526;BME280;13424;48.424;11.258;2023-04-25T02:35:06;94931.59;;;10.17;71.80
25526;BME280;13424;48.424;11.258;2023-04-25T02:37:38;94936.00;;;10.28;71.65
25526;BME280;13424;48.424;11.258;2023-04-25T02:40:06;94934.88;;;10.24;71.85
25526;BME280;13424;48.424;11.258;2023-04-25T02:42:33;94931.31;;;10.19;71.50
25526;BME280;13424;48.424;11.258;2023-04-25T02:44:58;94932.63;;;10.11;71.61
25526;BME280;13424;48.424;11.258;2023-04-25T02:47:26;94925.59;;;10.27;71.44
25526;BME280;13424;48.424;11.258;2023-04-25T02:49:52;94924.34;;;10.40;71.41
25526;BME280;13424;48.424;11.258;2023-04-25T02:52:18;94918.47;;;10.38;71.38
25526;BME280;13424;48.424;11.258;2023-04-25T02:54:49;94923.09;;;10.20;72.22
25526;BME280;13424;48.424;11.258;2023-04-25T02:57:15;94919.16;;;10.23;72.23
25526;BME280;13424;48.424;11.258;2023-04-25T02:59:41;94922.44;;;10.08;72.44
25526;BME280;13424;48.424;11.258;2023-04-25T03:02:07;94917.84;;;10.25;72.70
25526;BME280;13424;48.424;11.258;2023-04-25T03:04:33;94918.25;;;10.12;72.91
25526;BME280;13424;48.424;11.258;2023-04-25T03:06:59;94912.91;;;10.12;73.32
25526;BME280;13424;48.424;11.258;2023-04-25T03:09:25;94909.84;;;10.25;72.74
25526;BME280;13424;48.424;11.258;2023-04-25T03:11:51;94905.09;;;10.32;72.60
25526;BME280;13424;48.424;11.258;2023-04-25T03:14:18;94901.22;;;10.18;72.44
25526;BME280;13424;48.424;11.258;2023-04-25T03:16:44;94899.94;;;10.53;71.76
25526;BME280;13424;48.424;11.258;2023-04-25T03:19:10;94895.41;;;10.21;72.53
25526;BME280;13424;48.424;11.258;2023-04-25T03:21:37;94897.22;;;10.48;71.80
25526;BME280;13424;48.424;11.258;2023-04-25T03:24:12;94894.09;;;10.24;72.11
25526;BME280;13424;48.424;11.258;2023-04-25T03:26:38;94893.47;;;10.44;72.43
25526;BME280;13424;48.424;11.258;2023-04-25T03:29:04;94897.84;;;10.23;72.26
25526;BME280;13424;48.424;11.258;2023-04-25T03:31:30;94887.59;;;9.83;73.97
25526;BME280;13424;48.424;11.258;2023-04-25T03:34:03;94884.25;;;10.24;72.84
25526;BME280;13424;48.424;11.258;2023-04-25T03:36:28;94877.38;;;10.33;72.24
25526;BME280;13424;48.424;11.258;2023-04-25T03:38:54;94882.56;;;10.18;72.57
25526;BME280;13424;48.424;11.258;2023-04-25T03:41:21;94877.22;;;10.18;72.74
25526;BME280;13424;48.424;11.258;2023-04-25T03:43:58;94890.56;;;10.18;73.20
25526;BME280;13424;48.424;11.258;2023-04-25T03:46:26;94888.88;;;10.07;73.49
25526;BME280;13424;48.424;11.258;2023-04-25T03:48:52;94882.69;;;10.01;73.10
25526;BME280;13424;48.424;11.258;2023-04-25T03:51:21;94886.25;;;10.12;73.29
25526;BME280;13424;48.424;11.258;2023-04-25T03:57:54;94889.88;;;10.28;73.05
25526;BME280;13424;48.424;11.258;2023-04-25T04:00:20;94897.84;;;10.23;73.29
25526;BME280;13424;48.424;11.258;2023-04-25T04:02:51;94893.97;;;9.82;74.55
25526;BME280;13424;48.424;11.258;2023-04-25T04:05:17;94889.47;;;10.14;72.92
25526;BME280;13424;48.424;11.258;2023-04-25T04:07:50;94899.50;;;9.75;74.05
25526;BME280;13424;48.424;11.258;2023-04-25T04:10:17;94904.09;;;9.85;73.65
25526;BME280;13424;48.424;11.258;2023-04-25T04:12:43;94897.13;;;9.78;73.39
25526;BME280;13424;48.424;11.258;2023-04-25T04:15:14;94893.31;;;10.23;72.38
25526;BME280;13424;48.424;11.258;2023-04-25T04:17:42;94903.25;;;10.33;71.88
25526;BME280;13424;48.424;11.258;2023-04-25T04:20:08;94907.00;;;10.37;71.86
25526;BME280;13424;48.424;11.258;2023-04-25T04:22:35;94904.56;;;10.30;71.80
25526;BME280;13424;48.424;11.258;2023-04-25T04:25:07;94902.84;;;10.19;72.51
25526;BME280;13424;48.424;11.258;2023-04-25T04:27:51;94907.47;;;10.29;71.95
25526;BME280;13424;48.424;11.258;2023-04-25T04:30:39;94898.81;;;10.17;73.66
25526;BME280;13424;48.424;11.258;2023-04-25T04:33:07;94905.28;;;10.53;71.77
25526;BME280;13424;48.424;11.258;2023-04-25T04:35:34;94906.03;;;10.48;71.47
25526;BME280;13424;48.424;11.258;2023-04-25T04:38:00;94913.69;;;10.40;72.10
25526;BME280;13424;48.424;11.258;2023-04-25T04:40:30;94911.56;;;10.42;72.16
25526;BME280;13424;48.424;11.258;2023-04-25T04:43:12;94908.69;;;10.43;71.99
25526;BME280;13424;48.424;11.258;2023-04-25T04:45:52;94912.91;;;10.76;71.54
25526;BME280;13424;48.424;11.258;2023-04-25T04:48:32;94911.88;;;10.82;71.57
25526;BME280;13424;48.424;11.258;2023-04-25T04:51:31;94906.47;;;10.72;71.48
25526;BME280;13424;48.424;11.258;2023-04-25T04:54:16;94905.97;;;10.75;71.06
25526;BME280;13424;48.424;11.258;2023-04-25T04:56:52;94915.66;;;10.92;70.73
25526;BME280;13424;48.424;11.258;2023-04-25T04:59:40;94919.84;;;10.77;71.06
25526;BME280;13424;48.424;11.258;2023-04-25T05:02:15;94912.00;;;10.60;70.64
25526;BME280;13424;48.424;11.258;2023-04-25T05:05:06;94917.13;;;10.72;71.10
25526;BME280;13424;48.424;11.258;2023-04-25T05:07:49;94916.06;;;10.73;70.89
25526;BME280;13424;48.424;11.258;2023-04-25T05:10:41;94916.69;;;10.85;70.95
25526;BME280;13424;48.424;11.258;2023-04-25T05:13:19;94906.56;;;10.82;71.02
25526;BME280;13424;48.424;11.258;2023-04-25T05:16:11;94913.53;;;10.94;70.29
25526;BME280;13424;48.424;11.258;2023-04-25T05:18:48;94915.09;;;10.89;70.59
25526;BME280;13424;48.424;11.258;2023-04-25T05:21:32;94921.06;;;11.02;70.57
25526;BME280;13424;48.424;11.258;2023-04-25T05:24:15;94919.44;;;11.01;71.14
25526;BME280;13424;48.424;11.258;2023-04-25T05:26:59;94915.22;;;11.10;71.19
25526;BME280;13424;48.424;11.258;2023-04-25T05:29:38;94907.03;;;11.27;70.62
25526;BME280;13424;48.424;11.258;2023-04-25T05:32:22;94912.78;;;11.03;70.77
25526;BME280;13424;48.424;11.258;2023-04-25T05:34:49;94917.88;;;11.05;70.12
25526;BME280;13424;48.424;11.258;2023-04-25T05:37:23;94913.72;;;10.82;70.77
25526;BME280;13424;48.424;11.258;2023-04-25T05:39:55;94913.41;;;10.73;70.71
25526;BME280;13424;48.424;11.258;2023-04-25T05:42:44;94917.28;;;10.55;70.64
25526;BME280;13424;48.424;11.258;2023-04-25T05:45:40;94921.91;;;10.33;72.03
25526;BME280;13424;48.424;11.258;2023-04-25T05:48:24;94924.78;;;9.99;73.38
25526;BME280;13424;48.424;11.258;2023-04-25T05:51:00;94917.34;;;10.28;73.40
25526;BME280;13424;48.424;11.258;2023-04-25T05:53:45;94914.16;;;10.31;74.05
25526;BME280;13424;48.424;11.258;2023-04-25T05:56:13;94919.88;;;10.18;74.31
25526;BME280;13424;48.424;11.258;2023-04-25T05:58:39;94921.00;;;9.95;74.68
25526;BME280;13424;48.424;11.258;2023-04-25T06:01:06;94913.50;;;10.19;74.37
25526;BME280;13424;48.424;11.258;2023-04-25T06:03:31;94916.03;;;10.31;73.46
25526;BME280;13424;48.424;11.258;2023-04-25T06:05:58;94923.50;;;10.34;73.79
25526;BME280;13424;48.424;11.258;2023-04-25T06:08:25;94920.22;;;10.54;73.00
25526;BME280;13424;48.424;11.258;2023-04-25T06:10:51;94920.50;;;10.57;73.33
25526;BME280;13424;48.424;11.258;2023-04-25T06:13:17;94914.28;;;10.47;74.03
25526;BME280;13424;48.424;11.258;2023-04-25T06:15:42;94920.81;;;10.66;73.92
25526;BME280;13424;48.424;11.258;2023-04-25T06:18:08;94916.53;;;10.65;73.45
25526;BME280;13424;48.424;11.258;2023-04-25T06:20:34;94918.44;;;10.70;74.67
25526;BME280;13424;48.424;11.258;2023-04-25T06:23:00;94924.34;;;11.19;73.33
25526;BME280;13424;48.424;11.258;2023-04-25T06:26:33;94913.72;;;11.24;72.97
25526;BME280;13424;48.424;11.258;2023-04-25T06:28:58;94912.53;;;11.62;72.21
25526;BME280;13424;48.424;11.258;2023-04-25T06:31:24;94913.97;;;12.00;71.89
25526;BME280;13424;48.424;11.258;2023-04-25T06:33:51;94912.44;;;12.35;71.73
25526;BME280;13424;48.424;11.258;2023-04-25T06:36:21;94909.75;;;12.20;71.24
25526;BME280;13424;48.424;11.258;2023-04-25T06:38:53;94904.91;;;12.32;70.15
25526;BME280;13424;48.424;11.258;2023-04-25T06:41:20;94903.59;;;12.29;70.90
25526;BME280;13424;48.424;11.258;2023-04-25T06:43:46;94908.69;;;12.46;70.36
25526;BME280;13424;48.424;11.258;2023-04-25T06:46:24;94908.66;;;12.16;71.01
25526;BME280;13424;48.424;11.258;2023-04-25T06:48:51;94901.09;;;11.77;72.26
25526;BME280;13424;48.424;11.258;2023-04-25T06:51:18;94910.16;;;11.76;73.42
25526;BME280;13424;48.424;11.258;2023-04-25T06:53:45;94918.72;;;11.78;73.26
25526;BME280;13424;48.424;11.258;2023-04-25T06:56:25;94926.81;;;11.93;74.83
25526;BME280;13424;48.424;11.258;2023-04-25T06:59:03;94926.00;;;11.88;73.30
25526;BME280;13424;48.424;11.258;2023-04-25T07:01:35;94921.75;;;12.22;71.76
25526;BME280;13424;48.424;11.258;2023-04-25T07:04:04;94926.03;;;12.03;72.56
25526;BME280;13424;48.424;11.258;2023-04-25T07:06:32;94920.66;;;11.88;73.54
25526;BME280;13424;48.424;11.258;2023-04-25T07:08:58;94923.91;;;12.10;73.11
25526;BME280;13424;48.424;11.258;2023-04-25T07:11:24;94909.19;;;12.13;72.28
25526;BME280;13424;48.424;11.258;2023-04-25T07:13:50;94909.19;;;12.13;71.01
25526;BME280;13424;48.424;11.258;2023-04-25T07:16:16;94903.03;;;12.07;72.25
25526;BME280;13424;48.424;11.258;2023-04-25T07:18:42;94907.34;;;12.18;71.74
25526;BME280;13424;48.424;11.258;2023-04-25T07:21:09;94906.53;;;12.58;71.91
25526;BME280;13424;48.424;11.258;2023-04-25T07:23:36;94908.69;;;12.26;71.90
25526;BME280;13424;48.424;11.258;2023-04-25T07:26:08;94903.06;;;12.22;71.10
25526;BME280;13424;48.424;11.258;2023-04-25T07:28:36;94914.56;;;12.33;70.47
25526;BME280;13424;48.424;11.258;2023-04-25T07:31:01;94913.50;;;12.29;70.50
25526;BME280;13424;48.424;11.258;2023-04-25T07:33:28;94912.88;;;13.24;70.61
25526;BME280;13424;48.424;11.258;2023-04-25T07:35:54;94901.56;;;13.96;67.95
25526;BME280;13424;48.424;11.258;2023-04-25T07:38:21;94902.88;;;13.55;67.02
25526;BME280;13424;48.424;11.258;2023-04-25T07:40:50;94898.94;;;13.32;67.81
25526;BME280;13424;48.424;11.258;2023-04-25T07:43:16;94898.38;;;13.35;67.06
25526;BME280;13424;48.424;11.258;2023-04-25T07:45:49;94895.00;;;12.89;67.09
25526;BME280;13424;48.424;11.258;2023-04-25T07:48:18;94892.53;;;13.12;68.34
25526;BME280;13424;48.424;11.258;2023-04-25T07:50:45;94895.06;;;13.63;67.42
25526;BME280;13424;48.424;11.258;2023-04-25T07:53:11;94899.44;;;13.39;66.04
25526;BME280;13424;48.424;11.258;2023-04-25T07:55:44;94904.34;;;13.01;66.93
25526;BME280;13424;48.424;11.258;2023-04-25T07:58:16;94898.88;;;13.47;64.61
25526;BME280;13424;48.424;11.258;2023-04-25T08:00:47;94902.19;;;13.08;65.07
25526;BME280;13424;48.424;11.258;2023-04-25T08:03:26;94911.59;;;12.70;65.15
25526;BME280;13424;48.424;11.258;2023-04-25T08:05:53;94906.53;;;12.43;65.61
25526;BME280;13424;48.424;11.258;2023-04-25T08:08:19;94907.59;;;12.63;64.25
25526;BME280;13424;48.424;11.258;2023-04-25T08:10:45;94913.25;;;12.41;66.01
25526;BME280;13424;48.424;11.258;2023-04-25T08:13:56;94917.75;;;12.71;64.41
25526;BME280;13424;48.424;11.258;2023-04-25T08:16:22;94920.19;;;12.26;65.61
25526;BME280;13424;48.424;11.258;2023-04-25T08:18:49;94919.09;;;12.63;67.11
25526;BME280;13424;48.424;11.258;2023-04-25T08:21:15;94919.91;;;12.84;63.15
25526;BME280;13424;48.424;11.258;2023-04-25T08:23:41;94919.03;;;13.29;63.94
25526;BME280;13424;48.424;11.258;2023-04-25T08:26:13;94913.31;;;13.56;63.35
25526;BME280;13424;48.424;11.258;2023-04-25T08:28:47;94917.22;;;13.74;62.17
25526;BME280;13424;48.424;11.258;2023-04-25T08:31:13;94912.22;;;14.12;61.92
25526;BME280;13424;48.424;11.258;2023-04-25T08:33:48;94911.09;;;15.15;59.31
25526;BME280;13424;48.424;11.258;2023-04-25T08:36:42;94904.03;;;14.32;59.93
25526;BME280;13424;48.424;11.258;2023-04-25T08:39:27;94906.66;;;15.05;59.38
25526;BME280;13424;48.424;11.258;2023-04-25T08:42:27;94908.75;;;15.08;62.21
25526;BME280;13424;48.424;11.258;2023-04-25T08:44:53;94912.16;;;15.19;60.79
25526;BME280;13424;48.424;11.258;2023-04-25T08:47:22;94923.53;;;15.59;57.51
25526;BME280;13424;48.424;11.258;2023-04-25T08:49:54;94907.28;;;15.21;57.75
25526;BME280;13424;48.424;11.258;2023-04-25T08:52:23;94912.78;;;15.59;57.52
25526;BME280;13424;48.424;11.258;2023-04-25T08:54:51;94914.16;;;14.45;61.73
25526;BME280;13424;48.424;11.258;2023-04-25T08:57:19;94911.69;;;14.83;59.77
25526;BME280;13424;48.424;11.258;2023-04-25T08:59:47;94920.59;;;14.78;59.80
25526;BME280;13424;48.424;11.258;2023-04-25T09:02:13;94916.66;;;14.27;61.67
25526;BME280;13424;48.424;11.258;2023-04-25T09:04:45;94920.94;;;14.28;60.01
25526;BME280;13424;48.424;11.258;2023-04-25T09:07:11;94929.28;;;14.65;59.74
25526;BME280;13424;48.424;11.258;2023-04-25T09:09:38;94923.09;;;14.99;61.02
25526;BME280;13424;48.424;11.258;2023-04-25T09:12:05;94927.34;;;15.05;59.52
25526;BME280;13424;48.424;11.258;2023-04-25T09:14:31;94928.84;;;15.40;62.48
25526;BME280;13424;48.424;11.258;2023-04-25T09:17:31;94932.41;;;16.02;56.96
25526;BME280;13424;48.424;11.258;2023-04-25T09:20:13;94932.66;;;16.43;58.49
25526;BME280;13424;48.424;11.258;2023-04-25T09:22:39;94937.53;;;15.32;54.15
25526;BME280;13424;48.424;11.258;2023-04-25T09:25:12;94934.28;;;14.77;55.93
25526;BME280;13424;48.424;11.258;2023-04-25T09:27:51;94939.09;;;14.80;55.65
25526;BME280;13424;48.424;11.258;2023-04-25T09:30:34;94937.84;;;15.78;53.98
25526;BME280;13424;48.424;11.258;2023-04-25T09:33:07;94936.81;;;15.50;54.94
25526;BME280;13424;48.424;11.258;2023-04-25T09:35:43;94951.19;;;15.12;55.58
25526;BME280;13424;48.424;11.258;2023-04-25T09:38:18;94934.06;;;14.73;55.83
25526;BME280;13424;48.424;11.258;2023-04-25T09:41:00;94941.19;;;15.17;55.25
25526;BME280;13424;48.424;11.258;2023-04-25T09:43:39;94939.88;;;15.39;53.86
25526;BME280;13424;48.424;11.258;2023-04-25T09:46:09;94942.03;;;16.08;55.10
25526;BME280;13424;48.424;11.258;2023-04-25T09:48:39;94945.84;;;15.83;54.76
25526;BME280;13424;48.424;11.258;2023-04-25T09:51:13;94948.09;;;15.76;55.26
25526;BME280;13424;48.424;11.258;2023-04-25T09:53:43;94949.94;;;14.70;56.66
25526;BME280;13424;48.424;11.258;2023-04-25T09:56:41;94953.03;;;14.48;58.36
25526;BME280;13424;48.424;11.258;2023-04-25T09:59:07;94958.78;;;13.72;59.20
25526;BME280;13424;48.424;11.258;2023-04-25T10:05:36;94956.41;;;14.19;60.81
25526;BME280;13424;48.424;11.258;2023-04-25T10:08:03;94962.34;;;14.16;60.01
25526;BME280;13424;48.424;11.258;2023-04-25T10:10:30;94963.06;;;13.73;60.63
25526;BME280;13424;48.424;11.258;2023-04-25T10:12:58;94977.34;;;13.48;61.85
25526;BME280;13424;48.424;11.258;2023-04-25T10:15:55;94973.78;;;13.73;58.61
25526;BME280;13424;48.424;11.258;2023-04-25T10:18:24;94970.44;;;13.11;58.89
25526;BME280;13424;48.424;11.258;2023-04-25T10:20:50;94982.19;;;13.40;58.52
25526;BME280;13424;48.424;11.258;2023-04-25T10:23:16;94986.25;;;13.02;60.84
25526;BME280;13424;48.424;11.258;2023-04-25T10:30:24;94989.41;;;12.23;63.64
25526;BME280;13424;48.424;11.258;2023-04-25T10:32:50;94988.38;;;13.10;63.44
25526;BME280;13424;48.424;11.258;2023-04-25T10:35:34;94993.63;;;13.77;63.42
25526;BME280;13424;48.424;11.258;2023-04-25T10:38:10;94997.84;;;13.88;62.57
25526;BME280;13424;48.424;11.258;2023-04-25T10:40:38;94985.28;;;14.38;60.98
25526;BME280;13424;48.424;11.258;2023-04-25T10:43:46;94996.69;;;14.14;58.51
25526;BME280;13424;48.424;11.258;2023-04-25T10:46:27;94995.44;;;14.85;57.59
25526;BME280;13424;48.424;11.258;2023-04-25T10:48:58;94995.91;;;14.04;59.76
25526;BME280;13424;48.424;11.258;2023-04-25T10:51:27;95004.69;;;13.45;61.86
25526;BME280;13424;48.424;11.258;2023-04-25T10:57:44;95013.84;;;13.23;64.22
25526;BME280;13424;48.424;11.258;2023-04-25T11:00:20;95020.44;;;12.29;64.97
25526;BME280;13424;48.424;11.258;2023-04-25T11:02:52;95026.63;;;11.72;66.46
25526;BME280;13424;48.424;11.258;2023-04-25T11:05:35;95037.81;;;12.32;69.04
25526;BME280;13424;48.424;11.258;2023-04-25T11:08:02;95040.13;;;11.13;72.93
25526;BME280;13424;48.424;11.258;2023-04-25T11:10:35;95041.88;;;10.11;75.96
25526;BME280;13424;48.424;11.258;2023-04-25T11:13:01;95043.84;;;10.21;76.91
25526;BME280;13424;48.424;11.258;2023-04-25T11:15:27;95042.50;;;10.45;74.67
25526;BME280;13424;48.424;11.258;2023-04-25T11:17:54;95041.19;;;10.48;75.17
25526;BME280;13424;48.424;11.258;2023-04-25T11:20:20;95040.94;;;10.49;76.08
25526;BME280;13424;48.424;11.258;2023-04-25T11:22:46;95042.25;;;10.47;75.75
25526;BME280;13424;48.424;11.258;2023-04-25T11:25:15;95039.78;;;10.67;75.09
25526;BME280;13424;48.424;11.258;2023-04-25T11:31:22;95042.44;;;10.40;76.92
25526;BME280;13424;48.424;11.258;2023-04-25T11:33:59;95042.25;;;11.11;74.95
25526;BME280;13424;48.424;11.258;2023-04-25T11:36:25;95038.31;;;11.18;73.63
25526;BME280;13424;48.424;11.258;2023-04-25T11:38:53;95038.47;;;11.39;70.06
25526;BME280;13424;48.424;11.258;2023-04-25T11:42:06;95036.72;;;11.17;72.66
25526;BME280;13424;48.424;11.258;2023-04-25T11:44:31;95037.03;;;11.26;73.71
25526;BME280;13424;48.424;11.258;2023-04-25T11:46:57;95047.19;;;11.71;71.65
25526;BME280;13424;48.424;11.258;2023-04-25T11:49:23;95042.38;;;11.26;70.15
25526;BME280;13424;48.424;11.258;2023-04-25T11:51:51;95055.78;;;11.36;72.13
25526;BME280;13424;48.424;11.258;2023-04-25T11:54:17;95051.94;;;11.17;73.74
25526;BME280;13424;48.424;11.258;2023-04-25T11:56:44;95057.09;;;10.97;73.79
25526;BME280;13424;48.424;11.258;2023-04-25T11:59:11;95059.63;;;11.93;71.07
25526;BME280;13424;48.424;11.258;2023-04-25T12:01:46;95060.34;;;11.83;69.85
25526;BME280;13424;48.424;11.258;2023-04-25T12:04:24;95050.06;;;11.60;70.65
25526;BME280;13424;48.424;11.258;2023-04-25T12:06:52;95047.44;;;12.27;69.48
25526;BME280;13424;48.424;11.258;2023-04-25T12:09:30;95051.19;;;11.74;70.47
25526;BME280;13424;48.424;11.258;2023-04-25T12:11:58;95060.66;;;13.00;70.36
25526;BME280;13424;48.424;11.258;2023-04-25T12:14:27;95064.84;;;12.35;72.20
25526;BME280;13424;48.424;11.258;2023-04-25T12:16:59;95069.09;;;12.26;73.23
25526;BME280;13424;48.424;11.258;2023-04-25T12:19:26;95068.03;;;11.69;72.99
25526;BME280;13424;48.424;11.258;2023-04-25T12:21:56;95076.75;;;11.60;74.99
25526;BME280;13424;48.424;11.258;2023-04-25T12:24:24;95086.94;;;11.63;75.52
25526;BME280;13424;48.424;11.258;2023-04-25T12:27:05;95084.06;;;11.69;75.44
25526;BME280;13424;48.424;11.258;2023-04-25T12:29:33;95093.25;;;11.46;73.27
25526;BME280;13424;48.424;11.258;2023-04-25T12:31:59;95093.44;;;11.03;74.87
25526;BME280;13424;48.424;11.258;2023-04-25T12:34:27;95097.38;;;10.41;77.55
25526;BME280;13424;48.424;11.258;2023-04-25T12:36:53;95088.19;;;10.54;79.12
25526;BME280;13424;48.424;11.258;2023-04-25T12:39:21;95092.00;;;10.14;79.64
25526;BME280;13424;48.424;11.258;2023-04-25T12:41:51;95090.44;;;9.96;80.70
25526;BME280;13424;48.424;11.258;2023-04-25T12:44:20;95100.78;;;9.93;79.99
25526;BME280;13424;48.424;11.258;2023-04-25T12:46:47;95100.81;;;9.76;79.97
25526;BME280;13424;48.424;11.258;2023-04-25T12:49:14;95101.03;;;9.91;80.45
25526;BME280;13424;48.424;11.258;2023-04-25T12:51:40;95102.25;;;9.45;80.42
25526;BME280;13424;48.424;11.258;2023-04-25T12:54:07;95113.75;;;9.67;81.30
25526;BME280;13424;48.424;11.258;2023-04-25T12:56:34;95112.63;;;9.80;79.43
25526;BME280;13424;48.424;11.258;2023-04-25T12:59:00;95098.16;;;9.20;79.71
25526;BME280;13424;48.424;11.258;2023-04-25T13:01:26;95101.00;;;9.69;78.75
25526;BME280;13424;48.424;11.258;2023-04-25T13:03:52;95105.09;;;9.77;78.33
25526;BME280;13424;48.424;11.258;2023-04-25T13:06:19;95114.28;;;9.31;78.98
25526;BME280;13424;48.424;11.258;2023-04-25T13:08:46;95113.03;;;9.55;79.65
25526;BME280;13424;48.424;11.258;2023-04-25T13:11:12;95119.72;;;9.74;78.17
25526;BME280;13424;48.424;11.258;2023-04-25T13:13:38;95112.69;;;9.68;78.07
25526;BME280;13424;48.424;11.258;2023-04-25T13:16:06;95109.94;;;10.02;77.36
25526;BME280;13424;48.424;11.258;2023-04-25T13:18:32;95113.44;;;10.24;76.77
25526;BME280;13424;48.424;11.258;2023-04-25T13:20:59;95101.31;;;10.87;74.80
25526;BME280;13424;48.424;11.258;2023-04-25T13:28:10;95109.31;;;11.14;75.20
25526;BME280;13424;48.424;11.258;2023-04-25T13:30:36;95102.34;;;11.51;74.16
25526;BME280;13424;48.424;11.258;2023-04-25T13:33:03;95099.34;;;11.42;73.42
25526;BME280;13424;48.424;11.258;2023-04-25T13:35:30;95113.91;;;11.24;73.49
25526;BME280;13424;48.424;11.258;2023-04-25T13:37:56;95105.81;;;11.51;72.75